createdAt,value
2022-11-10T00:02:30.212Z,29.95
2022-11-10T00:05:16.262Z,28.83
2022-11-10T00:08:12.108Z,29.98
2022-11-10T00:10:58.286Z,29.83
2022-11-10T00:14:06.838Z,30.63
2022-11-10T00:17:02.328Z,33.20
2022-11-10T00:19:47.980Z,27.25
2022-11-10T00:22:34.938Z,32.80
2022-11-10T00:25:20.808Z,30.75
2022-11-10T00:28:06.953Z,29.10
2022-11-10T00:30:52.403Z,29.45
2022-11-10T00:33:39.692Z,24.13
2022-11-10T00:36:25.586Z,28.98
2022-11-10T00:39:11.933Z,35.55
2022-11-10T00:41:58.003Z,28.20
2022-11-10T00:44:43.633Z,24.90
2022-11-10T00:47:29.425Z,27.92
2022-11-10T00:50:16.409Z,30.10
2022-11-10T00:53:02.271Z,28.30
2022-11-10T00:55:49.211Z,28.20
2022-11-10T00:58:34.990Z,25.77
2022-11-10T01:01:22.624Z,29.10
2022-11-10T01:04:08.121Z,26.67
2022-11-10T01:06:53.925Z,28.10
2022-11-10T01:09:39.908Z,27.50
2022-11-10T01:12:29.941Z,29.20
2022-11-10T01:15:15.965Z,26.42
2022-11-10T01:18:01.987Z,25.33
2022-11-10T01:20:51.701Z,29.27
2022-11-10T01:23:37.633Z,30.25
2022-11-10T01:26:24.236Z,24.10
2022-11-10T01:29:09.813Z,32.60
2022-11-10T01:31:55.797Z,26.27
2022-11-10T01:34:41.303Z,23.10
2022-11-10T01:37:27.513Z,28.48
2022-11-10T01:40:13.749Z,26.52
2022-11-10T01:42:59.498Z,30.15
2022-11-10T01:45:47.785Z,24.73
2022-11-10T01:48:38.836Z,26.02
2022-11-10T01:51:39.896Z,25.33
2022-11-10T01:54:29.650Z,29.10
2022-11-10T01:57:16.673Z,24.75
2022-11-10T02:00:02.937Z,24.25
2022-11-10T02:02:59.282Z,24.80
2022-11-10T02:05:45.410Z,27.00
2022-11-10T02:08:31.431Z,20.80
2022-11-10T02:11:17.230Z,29.00
2022-11-10T02:14:03.090Z,17.77
2022-11-10T02:16:48.952Z,28.52
2022-11-10T02:19:41.876Z,24.98
2022-11-10T02:22:27.984Z,26.23
2022-11-10T02:25:21.118Z,30.92
2022-11-10T02:28:06.633Z,22.70
2022-11-10T02:30:52.547Z,28.52
2022-11-10T02:33:38.256Z,29.05
2022-11-10T02:36:23.982Z,31.48
2022-11-10T02:39:09.697Z,27.35
2022-11-10T02:41:55.488Z,28.05
2022-11-10T02:44:41.883Z,24.52
2022-11-10T02:47:28.276Z,26.83
2022-11-10T02:50:13.851Z,30.48
2022-11-10T02:52:59.340Z,28.23
2022-11-10T02:55:45.422Z,23.80
2022-11-10T02:58:30.913Z,26.95
2022-11-10T03:01:16.332Z,27.52
2022-11-10T03:04:02.467Z,28.48
2022-11-10T03:06:48.238Z,21.25
2022-11-10T03:09:34.099Z,28.95
2022-11-10T03:12:19.538Z,26.13
2022-11-10T03:15:05.996Z,24.27
2022-11-10T03:17:52.377Z,27.15
2022-11-10T03:20:37.797Z,22.10
2022-11-10T03:23:24.095Z,20.35
2022-11-10T03:26:09.866Z,25.30
2022-11-10T03:28:55.417Z,17.55
2022-11-10T03:31:40.834Z,23.33
2022-11-10T03:34:30.787Z,22.23
2022-11-10T03:37:17.195Z,15.73
2022-11-10T03:40:03.182Z,22.65
2022-11-10T03:42:49.093Z,23.92
2022-11-10T03:45:35.127Z,17.48
2022-11-10T03:48:21.258Z,19.27
2022-11-10T03:51:07.273Z,26.75
2022-11-10T03:53:52.891Z,15.60
2022-11-10T03:56:38.904Z,26.00
2022-11-10T03:59:24.883Z,26.95
2022-11-10T04:02:10.924Z,20.98
2022-11-10T04:05:15.561Z,18.60
2022-11-10T04:08:20.662Z,19.70
2022-11-10T04:11:06.806Z,20.10
2022-11-10T04:14:11.026Z,22.13
2022-11-10T04:16:57.346Z,20.80
2022-11-10T04:19:43.024Z,17.67
2022-11-10T04:22:47.157Z,17.50
2022-11-10T04:25:52.775Z,17.27
2022-11-10T04:28:39.472Z,18.15
2022-11-10T04:31:26.761Z,17.30
2022-11-10T04:34:14.749Z,22.23
2022-11-10T04:37:00.407Z,20.40
2022-11-10T04:39:45.815Z,17.48
2022-11-10T04:42:31.908Z,20.83
2022-11-10T04:45:17.378Z,27.70
2022-11-10T04:48:03.288Z,24.50
2022-11-10T04:50:49.377Z,22.00
2022-11-10T04:53:35.172Z,21.52
2022-11-10T06:20:23.440Z,29.40
2022-11-10T06:23:13.105Z,17.48
2022-11-10T06:25:58.941Z,31.38
2022-11-10T06:28:46.738Z,27.73
2022-11-10T06:31:32.700Z,25.40
2022-11-10T06:34:18.311Z,31.63
2022-11-10T06:37:04.293Z,27.77
2022-11-10T06:39:49.733Z,29.10
2022-11-10T06:42:35.665Z,24.05
2022-11-10T06:45:22.161Z,25.63
2022-11-10T06:48:14.001Z,19.90
2022-11-10T06:51:03.152Z,23.48
2022-11-10T06:53:49.290Z,26.42
2022-11-10T06:56:35.433Z,25.80
2022-11-10T06:59:21.270Z,20.83
2022-11-10T07:02:09.699Z,21.00
2022-11-10T07:04:55.495Z,22.80
2022-11-10T07:07:41.682Z,20.63
2022-11-10T07:10:27.489Z,19.20
2022-11-10T07:13:13.182Z,21.58
2022-11-10T07:15:58.886Z,22.50
2022-11-10T07:18:44.491Z,22.00
2022-11-10T07:21:30.722Z,20.20
2022-11-10T07:24:16.521Z,19.45
2022-11-10T07:27:02.067Z,21.75
2022-11-10T07:29:47.729Z,20.00
2022-11-10T07:32:33.692Z,21.70
2022-11-10T07:35:19.475Z,16.85
2022-11-10T07:38:08.471Z,21.95
2022-11-10T07:40:54.384Z,19.35
2022-11-10T07:43:40.018Z,23.75
2022-11-10T07:46:25.851Z,22.40
2022-11-10T07:49:11.958Z,18.30
2022-11-10T07:51:58.007Z,17.23
2022-11-10T07:54:43.758Z,17.38
2022-11-10T07:57:29.450Z,18.77
2022-11-10T08:00:16.792Z,19.77
2022-11-10T08:03:16.299Z,25.05
2022-11-10T08:06:01.832Z,19.55
2022-11-10T08:08:48.017Z,17.98
2022-11-10T08:11:33.756Z,16.38
2022-11-10T08:14:19.386Z,14.52
2022-11-10T08:17:04.926Z,16.48
2022-11-10T08:19:50.822Z,19.17
2022-11-10T08:22:36.531Z,15.68
2022-11-10T08:25:22.123Z,18.27
2022-11-10T08:28:10.338Z,17.92
2022-11-10T08:30:57.769Z,15.77
2022-11-10T08:33:45.054Z,16.27
2022-11-10T08:36:30.906Z,16.75
2022-11-10T08:39:30.293Z,19.20
2022-11-10T08:42:22.091Z,18.27
2022-11-10T08:45:07.498Z,15.10
2022-11-10T08:48:00.255Z,11.65
2022-11-10T08:50:47.731Z,8.38
2022-11-10T08:53:33.639Z,12.18
2022-11-10T08:56:19.421Z,17.33
2022-11-10T08:59:04.882Z,20.35
2022-11-10T09:01:50.350Z,12.57
2022-11-10T09:04:36.103Z,18.95
2022-11-10T09:07:21.902Z,18.48
2022-11-10T09:10:08.418Z,15.32
2022-11-10T09:12:54.134Z,19.50
2022-11-10T09:15:41.669Z,15.63
2022-11-10T09:18:27.255Z,15.13
2022-11-10T09:21:13.000Z,16.55
2022-11-10T09:23:58.691Z,13.32
2022-11-10T09:26:47.733Z,18.70
2022-11-10T09:29:33.489Z,10.65
2022-11-10T09:32:18.894Z,15.00
2022-11-10T09:35:04.503Z,14.10
2022-11-10T09:37:50.612Z,18.20
2022-11-10T09:41:02.772Z,12.93
2022-11-10T09:44:24.691Z,14.35
2022-11-10T09:47:42.466Z,19.60
2022-11-10T09:50:31.531Z,12.73
2022-11-10T09:53:23.210Z,13.75
2022-11-10T09:56:16.363Z,14.85
2022-11-10T09:59:14.315Z,11.02
2022-11-10T10:02:05.111Z,8.15
2022-11-10T10:05:22.780Z,13.27
2022-11-10T10:08:13.546Z,11.90
2022-11-10T10:11:30.644Z,15.02
2022-11-10T10:15:02.708Z,15.50
2022-11-10T10:17:56.842Z,9.93
2022-11-10T10:20:44.657Z,12.02
2022-11-10T10:24:02.680Z,10.57
2022-11-10T10:26:49.186Z,14.43
2022-11-10T10:29:45.431Z,13.38
2022-11-10T14:01:32.563Z,19.67
2022-11-10T14:04:38.865Z,27.27
2022-11-10T14:07:28.006Z,17.67
2022-11-10T14:10:17.668Z,18.13
2022-11-10T14:13:12.421Z,24.98
2022-11-10T14:15:58.557Z,17.15
2022-11-10T14:18:49.664Z,20.45
2022-11-10T14:21:47.495Z,19.90
2022-11-10T14:24:45.399Z,22.77
2022-11-10T14:27:37.093Z,12.82
2022-11-10T14:30:33.529Z,19.30
2022-11-10T14:33:21.054Z,11.27
2022-11-10T14:36:09.044Z,14.00
2022-11-10T14:38:54.677Z,13.65
2022-11-10T14:41:48.286Z,19.88
2022-11-10T14:44:35.434Z,10.05
2022-11-10T14:47:27.912Z,14.52
2022-11-10T14:50:13.681Z,8.93
2022-11-10T14:53:03.333Z,16.90
2022-11-10T14:55:54.660Z,21.20
2022-11-10T14:58:44.149Z,16.30
2022-11-10T15:01:39.344Z,18.05
2022-11-10T15:04:29.413Z,18.50
2022-11-10T15:07:15.114Z,9.38
2022-11-10T15:10:16.134Z,17.05
2022-11-10T15:13:12.652Z,16.20
2022-11-10T15:16:32.114Z,11.15
2022-11-10T15:19:32.347Z,14.40
2022-11-10T15:22:22.115Z,13.00
2022-11-10T15:25:19.398Z,18.10
2022-11-10T15:28:07.294Z,9.80
2022-11-10T15:31:06.647Z,14.38
2022-11-10T15:34:04.435Z,16.63
2022-11-10T15:37:11.643Z,16.40
2022-11-10T15:40:30.542Z,19.80
2022-11-10T15:43:27.407Z,15.88
2022-11-10T15:46:19.997Z,15.98
2022-11-10T15:49:11.452Z,10.30
2022-11-10T15:52:00.917Z,20.45
2022-11-10T15:54:47.082Z,17.70
2022-11-10T15:57:32.595Z,15.70
2022-11-10T16:00:18.499Z,15.88
2022-11-10T16:03:05.031Z,17.13
2022-11-10T16:05:50.776Z,15.05
2022-11-10T16:08:36.613Z,14.07
2022-11-10T16:11:23.645Z,19.15
2022-11-10T16:14:15.732Z,15.70
2022-11-10T16:17:01.955Z,23.50
2022-11-10T16:19:47.814Z,15.48
2022-11-10T16:22:33.499Z,18.27
2022-11-10T16:25:25.202Z,16.27
2022-11-10T16:28:22.781Z,15.13
2022-11-10T16:31:11.333Z,17.70
2022-11-10T16:33:59.123Z,16.92
2022-11-10T16:36:47.609Z,11.48
2022-11-10T16:39:32.987Z,15.13
2022-11-10T16:42:18.665Z,12.55
2022-11-10T16:45:05.010Z,18.23
2022-11-10T16:47:53.327Z,21.45
2022-11-10T16:50:38.959Z,17.83
2022-11-10T16:53:27.141Z,16.00
2022-11-10T16:56:17.155Z,11.93
2022-11-10T16:59:03.528Z,22.45
2022-11-10T17:01:49.984Z,19.40
2022-11-10T17:04:35.471Z,21.13
2022-11-10T17:07:26.292Z,20.20
2022-11-10T17:10:17.091Z,19.30
2022-11-10T17:13:02.628Z,21.38
2022-11-10T17:15:48.779Z,20.25
2022-11-10T17:18:35.896Z,19.65
2022-11-10T17:21:22.857Z,22.08
2022-11-10T17:24:13.099Z,18.73
2022-11-10T17:26:59.159Z,19.95
2022-11-10T17:29:44.966Z,22.70
2022-11-10T17:32:58.106Z,18.73
2022-11-10T17:35:44.345Z,20.30
2022-11-10T17:41:18.987Z,17.05
2022-11-10T17:44:04.534Z,19.73
2022-11-10T17:46:49.913Z,19.13
2022-11-10T17:49:35.608Z,19.65
2022-11-10T17:52:21.319Z,20.02
2022-11-10T17:55:08.022Z,18.17
2022-11-10T17:57:54.095Z,20.13
2022-11-10T18:00:40.323Z,20.58
2022-11-10T18:03:26.074Z,24.98
2022-11-10T18:06:14.743Z,21.52
2022-11-10T18:09:00.446Z,19.67
2022-11-10T18:11:46.364Z,22.08
2022-11-10T18:14:34.386Z,20.17
2022-11-10T18:17:19.912Z,19.80
2022-11-10T18:20:06.029Z,22.75
2022-11-10T18:22:51.728Z,17.48
2022-11-10T18:25:39.979Z,22.67
2022-11-10T18:28:25.301Z,20.88
2022-11-10T18:31:13.285Z,17.52
2022-11-10T18:33:58.520Z,20.65
2022-11-10T18:36:43.881Z,22.35
2022-11-10T18:39:29.831Z,20.15
2022-11-10T18:42:15.663Z,20.60
2022-11-10T18:45:01.232Z,19.25
2022-11-10T18:47:47.081Z,23.67
2022-11-10T18:50:33.402Z,21.92
2022-11-10T18:53:18.649Z,19.25
2022-11-10T18:56:05.247Z,18.55
2022-11-10T18:58:56.363Z,19.58
2022-11-10T19:01:42.825Z,18.67
2022-11-10T19:04:28.234Z,17.65
2022-11-10T19:07:14.333Z,20.73
2022-11-10T19:10:00.033Z,17.70
2022-11-10T19:12:45.896Z,17.85
2022-11-10T19:15:31.286Z,21.77
2022-11-10T19:18:17.334Z,21.50
2022-11-10T19:21:06.159Z,19.25
2022-11-10T19:23:58.305Z,17.92
2022-11-10T19:26:44.168Z,22.13
2022-11-10T19:29:31.448Z,19.35
2022-11-10T19:32:20.762Z,23.42
2022-11-10T19:35:09.725Z,20.90
2022-11-10T19:37:55.481Z,20.48
2022-11-10T19:40:44.891Z,21.27
2022-11-10T19:43:31.501Z,25.65
2022-11-10T19:46:20.595Z,20.52
2022-11-10T19:49:06.531Z,23.92
2022-11-10T19:51:52.484Z,19.40
2022-11-10T19:54:38.403Z,21.60
2022-11-10T19:57:23.916Z,19.85
2022-11-10T20:00:12.500Z,21.08
2022-11-10T20:02:58.370Z,22.95
2022-11-10T20:05:46.373Z,21.00
2022-11-10T20:08:32.647Z,20.80
2022-11-10T20:11:23.690Z,22.02
2022-11-10T20:14:09.442Z,22.23
2022-11-10T20:16:55.003Z,28.95
2022-11-10T20:19:41.416Z,17.15
2022-11-10T20:22:27.182Z,24.25
2022-11-10T20:25:12.708Z,21.95
2022-11-10T20:28:01.473Z,20.27
2022-11-10T20:30:47.488Z,20.85
2022-11-10T20:33:33.975Z,25.60
2022-11-10T20:36:21.571Z,25.88
2022-11-10T20:39:07.285Z,21.38
2022-11-10T20:41:52.945Z,22.65
2022-11-10T20:44:38.522Z,21.95
2022-11-10T20:47:24.963Z,21.48
2022-11-10T20:50:14.929Z,23.10
2022-11-10T20:53:01.994Z,23.90
2022-11-10T20:55:54.901Z,23.05
2022-11-10T20:58:41.845Z,21.95
2022-11-10T21:01:28.010Z,24.35
2022-11-10T21:04:13.559Z,21.88
2022-11-10T21:06:59.087Z,20.42
2022-11-10T21:09:44.317Z,19.73
2022-11-10T21:12:48.814Z,17.85
2022-11-10T21:15:38.589Z,20.27
2022-11-10T21:18:26.237Z,17.88
2022-11-10T21:21:22.917Z,22.42
2022-11-10T21:24:09.494Z,20.30
2022-11-10T21:26:55.935Z,18.35
2022-11-10T21:29:42.460Z,17.77
2022-11-10T21:32:28.258Z,17.13
2022-11-10T21:35:14.260Z,18.83
2022-11-10T21:38:00.085Z,17.40
2022-11-10T21:40:45.876Z,17.08
2022-11-10T21:43:31.944Z,22.48
2022-11-10T21:46:18.092Z,18.05
2022-11-10T21:49:07.651Z,18.15
2022-11-10T21:51:53.428Z,18.90
2022-11-10T21:54:39.360Z,16.58
2022-11-10T21:57:24.798Z,21.42
2022-11-10T22:00:12.044Z,19.17
2022-11-10T22:03:02.494Z,14.90
2022-11-10T22:05:47.867Z,17.55
2022-11-10T22:08:34.064Z,18.05
2022-11-10T22:11:40.279Z,17.15
2022-11-10T22:14:44.603Z,22.08
2022-11-10T22:17:48.910Z,17.40
2022-11-10T22:20:34.233Z,22.83
2022-11-10T22:23:39.771Z,16.88
2022-11-10T22:26:25.348Z,18.08
2022-11-10T22:29:10.770Z,19.55
2022-11-10T22:31:56.238Z,17.55
2022-11-10T22:34:41.754Z,20.15
2022-11-10T22:37:33.394Z,18.55
2022-11-10T22:40:37.720Z,19.90
2022-11-10T22:43:42.027Z,18.58
2022-11-10T22:46:28.460Z,19.13
2022-11-10T22:49:16.014Z,18.60
2022-11-10T22:52:01.794Z,19.00
2022-11-10T22:54:47.333Z,19.98
2022-11-10T22:57:32.871Z,19.95
2022-11-10T23:00:18.425Z,23.20
2022-11-10T23:03:03.830Z,17.27
2022-11-10T23:05:56.407Z,18.13
2022-11-10T23:08:43.008Z,15.35
2022-11-10T23:11:31.121Z,19.85
2022-11-10T23:14:16.344Z,18.83
2022-11-10T23:17:01.744Z,16.98
2022-11-10T23:19:47.248Z,18.77
2022-11-10T23:22:32.868Z,19.38
2022-11-10T23:25:18.320Z,17.55
2022-11-10T23:28:04.218Z,18.80
2022-11-10T23:30:49.853Z,19.98
2022-11-10T23:33:36.702Z,18.88
2022-11-10T23:36:25.395Z,22.13
2022-11-10T23:39:11.022Z,17.67
2022-11-10T23:41:56.935Z,19.83
2022-11-10T23:44:42.133Z,17.23
2022-11-10T23:47:27.818Z,16.63
2022-11-10T23:50:13.114Z,16.00
2022-11-10T23:52:58.845Z,16.02
2022-11-10T23:55:45.045Z,19.13
2022-11-10T23:58:30.651Z,18.40
